Blaine, Minnesota
Current Conditions -  °F | °C
As of 10:45 AM on Tuesday 27 Jan 2015 (Local Time) from KANE Reporting Station
Overcast Overcast  
Wind Chill: 29°   Ceiling: 1800
Heat Index: 34°   Visibility: 10mi
Dew Point: 27°   Wind: 6mph
Humidity: 75%   Direction: 70°ENE
Pressure: 30.17"   Gusts: NA
Location:  45.17°N, 93.21°W
Report Text: KANE 271645Z 07005KT 10SM OVC018 01/M03 A3017
Loading
Personal Weather Stations






























Interactive Weather Map New forecast layout! Learn more

10-Day Weather Forecast

Advertisements
Track Severe Weather on mobile